Time;durP1;ratioP1;P1;durP2;ratioP2;P2;SDS_P1;SDS_P2;PMS_P1;PMS_P2;Temp;Humidity;BMP_temperature;BMP_pressure;BME280_temperature;BME280_humidity;BME280_pressure;Samples;Min_cycle;Max_cycle;Signal;HPM_P1;HPM_P2
2022/08/17 00:01:45;;;;;;;14.20;12.70;;;;;;;19.63;87.60;99956.23;84763;1325;22580;-72
2022/08/17 00:03:54;;;;;;;14.70;13.10;;;;;;;19.58;87.58;99954.07;84751;1327;22587;-71
2022/08/17 00:06:05;;;;;;;13.80;12.40;;;;;;;19.56;87.75;99956.39;84760;1326;22727;-72
2022/08/17 00:08:15;;;;;;;14.20;12.70;;;;;;;19.55;87.95;99951.71;84751;1326;22576;-72
2022/08/17 00:10:24;;;;;;;13.20;11.90;;;;;;;19.53;87.93;99949.52;84775;1327;22693;-72
2022/08/17 00:12:33;;;;;;;14.50;13.00;;;;;;;19.51;87.71;99952.00;84763;1326;24284;-72
2022/08/17 00:14:42;;;;;;;15.40;13.00;;;;;;;19.51;87.59;99954.14;84761;1324;24226;-71
2022/08/17 00:16:54;;;;;;;13.70;12.30;;;;;;;19.49;87.66;99955.33;84787;1326;22604;-73
2022/08/17 00:19:04;;;;;;;13.90;12.60;;;;;;;19.47;87.87;99954.44;84765;1327;24158;-73
2022/08/17 00:21:13;;;;;;;13.50;12.10;;;;;;;19.46;87.82;99953.66;84733;1323;22738;-72
2022/08/17 00:23:22;;;;;;;14.30;12.80;;;;;;;19.44;87.69;99951.70;84760;1326;22645;-71
2022/08/17 00:25:31;;;;;;;23.40;14.60;;;;;;;19.43;87.83;99956.24;84671;1328;25446;-71
2022/08/17 00:27:43;;;;;;;13.50;12.20;;;;;;;19.42;87.78;99959.18;84736;1326;22593;-72
2022/08/17 00:29:52;;;;;;;14.20;12.70;;;;;;;19.38;87.88;99959.29;84719;1325;22673;-72
2022/08/17 00:32:01;;;;;;;16.00;13.70;;;;;;;19.33;88.00;99955.06;84772;1326;22555;-73
2022/08/17 00:34:09;;;;;;;13.00;11.80;;;;;;;19.29;88.13;99953.25;84758;1326;22614;-73
2022/08/17 00:36:20;;;;;;;16.00;13.70;;;;;;;19.27;88.44;99954.11;84670;1328;23918;-71
2022/08/17 00:38:29;;;;;;;14.60;13.20;;;;;;;19.26;88.54;99955.98;84759;1318;25036;-70
2022/08/17 00:40:38;;;;;;;18.60;13.50;;;;;;;19.25;88.57;99953.05;84760;1326;22619;-72
2022/08/17 00:42:47;;;;;;;14.50;13.00;;;;;;;19.24;88.43;99956.50;84762;1327;22738;-72
2022/08/17 00:44:56;;;;;;;13.60;12.30;;;;;;;19.23;88.76;99957.64;84710;1328;22847;-72
2022/08/17 00:47:05;;;;;;;15.10;13.20;;;;;;;19.23;88.90;99960.33;84782;1325;22599;-73
2022/08/17 00:49:18;;;;;;;13.70;12.20;;;;;;;19.22;88.93;99959.35;84769;1327;25355;-73
2022/08/17 00:51:32;;;;;;;14.80;13.30;;;;;;;19.21;88.83;99960.11;84683;1327;22617;-71
2022/08/17 00:53:44;;;;;;;15.70;12.50;;;;;;;19.20;88.79;99957.04;84764;1326;23977;-72
2022/08/17 00:55:53;;;;;;;14.30;12.70;;;;;;;19.18;88.62;99955.47;84694;1327;22606;-72
2022/08/17 00:58:03;;;;;;;17.80;13.30;;;;;;;19.17;88.59;99953.41;84678;1327;22588;-72
2022/08/17 01:00:17;;;;;;;19.00;13.70;;;;;;;19.16;88.64;99956.33;84755;1326;22851;-73
2022/08/17 01:02:26;;;;;;;16.40;14.70;;;;;;;19.15;88.90;99956.73;84787;1328;23058;-72
2022/08/17 01:04:35;;;;;;;14.60;13.10;;;;;;;19.13;88.85;99953.88;84772;1318;22610;-72
2022/08/17 01:06:45;;;;;;;16.10;13.30;;;;;;;19.12;88.75;99950.28;84708;1328;24271;-73
2022/08/17 01:08:54;;;;;;;16.90;13.70;;;;;;;19.11;88.98;99951.75;84746;1326;25437;-72
2022/08/17 01:11:04;;;;;;;14.50;13.10;;;;;;;19.08;89.13;99951.09;84769;1326;22747;-71
2022/08/17 01:13:13;;;;;;;15.70;13.90;;;;;;;19.05;89.45;99954.32;84771;1326;22800;-72
2022/08/17 01:15:22;;;;;;;14.60;13.20;;;;;;;19.05;89.46;99957.35;84745;1321;24386;-73
2022/08/17 01:17:31;;;;;;;16.40;13.80;;;;;;;19.02;89.33;99958.77;84753;1324;22784;-71
2022/08/17 01:19:41;;;;;;;17.10;14.80;;;;;;;19.00;89.44;99960.19;84765;1327;22589;-71
2022/08/17 01:21:50;;;;;;;;;;;;;;;18.99;89.70;99958.85;84790;1327;22584;-72
2022/08/17 01:23:59;;;;;;;18.30;14.70;;;;;;;18.96;89.86;99957.52;84746;1326;24372;-70
2022/08/17 01:26:08;;;;;;;15.60;14.00;;;;;;;18.95;89.78;99957.60;84769;1326;25450;-72
2022/08/17 01:28:17;;;;;;;14.00;12.70;;;;;;;18.94;89.78;99956.61;84751;1326;23956;-73
2022/08/17 01:30:29;;;;;;;17.00;14.40;;;;;;;18.93;89.88;99957.44;84742;1326;25613;-72
2022/08/17 01:32:38;;;;;;;17.20;14.60;;;;;;;18.92;89.87;99959.12;84687;1327;22701;-72
2022/08/17 01:34:49;;;;;;;15.40;12.90;;;;;;;18.91;90.04;99961.45;84674;1328;22597;-72
2022/08/17 01:36:57;;;;;;;17.00;14.40;;;;;;;18.91;90.11;99966.79;84786;1322;22703;-72
2022/08/17 01:39:07;;;;;;;18.20;14.30;;;;;;;18.90;90.07;99967.36;84753;1327;24307;-73
2022/08/17 01:41:17;;;;;;;15.70;14.20;;;;;;;18.91;90.20;99963.36;84776;1321;22654;-72
2022/08/17 01:43:27;;;;;;;17.40;14.80;;;;;;;18.94;90.47;99967.98;84736;1326;22616;-71
2022/08/17 01:45:42;;;;;;;17.80;15.20;;;;;;;18.96;90.68;99967.43;84795;1326;22593;-71
2022/08/17 01:47:51;;;;;;;17.00;14.60;;;;;;;18.99;90.76;99970.89;84763;1326;22607;-72
2022/08/17 01:50:04;;;;;;;18.50;16.20;;;;;;;19.01;90.71;99971.41;84739;1326;23185;-72
2022/08/17 01:52:13;;;;;;;20.20;14.90;;;;;;;19.04;90.70;99972.41;84800;1326;22590;-72
2022/08/17 01:54:22;;;;;;;16.20;14.60;;;;;;;19.07;90.64;99968.88;84756;1327;22595;-71
2022/08/17 01:56:32;;;;;;;17.40;15.00;;;;;;;19.09;90.63;99965.00;84763;1326;22584;-71
2022/08/17 01:58:44;;;;;;;16.40;14.60;;;;;;;19.09;90.55;99960.91;84683;1328;22618;-71
2022/08/17 02:00:53;;;;;;;19.80;15.10;;;;;;;19.09;90.63;99962.14;84811;1327;22587;-72
2022/08/17 02:03:02;;;;;;;23.80;16.10;;;;;;;19.07;90.50;99961.96;84338;1326;555909;-72
2022/08/17 02:05:12;;;;;;;16.30;14.70;;;;;;;19.02;90.46;99961.10;84735;1326;22576;-72
2022/08/17 02:07:19;;;;;;;;;;;;;;;19.00;90.66;99962.34;84779;1326;22574;-72
2022/08/17 02:09:29;;;;;;;18.10;14.80;;;;;;;18.97;90.79;99964.86;84781;1327;22942;-72
2022/08/17 02:11:38;;;;;;;16.70;15.10;;;;;;;18.96;90.57;99963.21;84778;1326;22610;-72
2022/08/17 02:13:50;;;;;;;16.90;15.30;;;;;;;18.94;90.24;99967.27;84752;1326;22567;-71
2022/08/17 02:15:59;;;;;;;18.60;15.20;;;;;;;18.91;90.26;99968.89;84775;1326;22589;-71
2022/08/17 02:18:09;;;;;;;19.50;17.20;;;;;;;18.90;90.33;99972.86;84758;1322;22624;-71
2022/08/17 02:20:18;;;;;;;18.50;16.20;;;;;;;18.89;90.49;99972.38;84752;1323;22671;-71
2022/08/17 02:22:27;;;;;;;17.30;15.70;;;;;;;18.88;90.43;99974.95;84755;1326;22581;-71
2022/08/17 02:24:37;;;;;;;20.90;16.50;;;;;;;18.86;90.36;99977.80;84598;1329;22601;-72
2022/08/17 02:26:46;;;;;;;17.00;14.90;;;;;;;18.83;90.31;99976.91;84722;1326;22590;-73
2022/08/17 02:28:55;;;;;;;19.20;15.30;;;;;;;18.79;90.17;99976.20;84744;1326;22594;-72
2022/08/17 02:31:07;;;;;;;16.70;15.00;;;;;;;18.75;90.47;99973.88;84729;1326;24361;-71
2022/08/17 02:33:16;;;;;;;16.30;14.70;;;;;;;18.73;90.75;99973.67;84764;1320;24332;-72
2022/08/17 02:35:25;;;;;;;18.20;15.60;;;;;;;18.71;90.71;99972.73;84783;1326;22660;-71
2022/08/17 02:37:34;;;;;;;16.20;14.60;;;;;;;18.70;90.78;99970.55;84740;1326;22593;-69
2022/08/17 02:39:43;;;;;;;18.20;15.70;;;;;;;18.69;90.93;99971.84;84774;1326;23962;-71
2022/08/17 02:41:56;;;;;;;16.80;15.10;;;;;;;18.68;90.72;99969.07;84765;1326;25596;-73
2022/08/17 02:44:06;;;;;;;20.10;15.90;;;;;;;18.66;90.79;99967.66;84750;1321;23134;-72
2022/08/17 02:46:15;;;;;;;20.20;14.90;;;;;;;18.64;90.88;99974.13;84769;1326;22683;-72
2022/08/17 02:48:23;;;;;;;17.80;15.70;;;;;;;18.62;90.83;99975.72;84744;1325;22772;-71
2022/08/17 02:50:33;;;;;;;16.60;15.00;;;;;;;18.61;90.83;99976.38;84755;1327;25290;-71
2022/08/17 02:52:43;;;;;;;17.80;15.90;;;;;;;18.60;91.05;99981.42;84789;1325;22597;-72
2022/08/17 02:54:52;;;;;;;16.70;15.10;;;;;;;18.58;90.98;99982.39;84778;1326;24236;-73
2022/08/17 02:57:02;;;;;;;17.80;15.60;;;;;;;18.56;91.00;99981.97;84725;1330;24318;-71
2022/08/17 02:59:10;;;;;;;17.70;15.70;;;;;;;18.54;90.72;99980.24;84786;1326;22587;-73
2022/08/17 03:01:19;;;;;;;17.80;15.90;;;;;;;18.52;90.96;99984.08;84772;1326;22639;-71
2022/08/17 03:03:28;;;;;;;21.60;18.10;;;;;;;18.51;91.09;99982.03;84793;1326;22788;-71
2022/08/17 03:05:37;;;;;;;19.70;17.20;;;;;;;18.49;91.01;99979.17;84766;1326;24357;-71
2022/08/17 03:07:46;;;;;;;19.90;17.10;;;;;;;18.47;90.87;99982.32;84786;1326;22807;-71
2022/08/17 03:09:55;;;;;;;18.40;16.10;;;;;;;18.46;91.10;99980.67;84761;1326;22631;-71
2022/08/17 03:12:11;;;;;;;20.90;15.80;;;;;;;18.44;90.95;99977.63;84768;1325;22869;-73
2022/08/17 03:14:20;;;;;;;19.50;16.30;;;;;;;18.43;90.82;99978.41;84772;1325;24253;-72
2022/08/17 03:16:29;;;;;;;19.20;16.90;;;;;;;18.42;90.78;99981.52;84771;1326;26504;-71
2022/08/17 03:18:38;;;;;;;16.30;14.80;;;;;;;18.40;90.78;99982.35;84748;1326;22799;-72
2022/08/17 03:20:47;;;;;;;17.30;15.40;;;;;;;18.38;91.11;99983.92;84747;1326;22659;-72
2022/08/17 03:22:56;;;;;;;17.00;15.20;;;;;;;18.37;91.03;99983.82;84808;1325;23259;-71
2022/08/17 03:25:08;;;;;;;17.50;15.00;;;;;;;18.36;91.20;99982.34;84778;1328;25444;-72
2022/08/17 03:27:16;;;;;;;16.00;14.50;;;;;;;18.35;91.17;99987.49;84794;1326;23933;-71
2022/08/17 03:29:26;;;;;;;16.80;15.10;;;;;;;18.34;91.04;99989.36;84768;1325;24406;-71
2022/08/17 03:31:34;;;;;;;19.40;15.50;;;;;;;18.32;91.10;99988.96;84822;1326;22563;-72
2022/08/17 03:33:43;;;;;;;17.80;15.70;;;;;;;18.33;91.45;99986.45;84782;1325;22628;-72
2022/08/17 03:35:52;;;;;;;17.30;15.60;;;;;;;18.35;91.43;99992.16;84788;1325;22944;-70
2022/08/17 03:38:02;;;;;;;18.30;15.30;;;;;;;18.35;91.48;99993.88;84752;1325;22673;-71
2022/08/17 03:40:12;;;;;;;18.10;15.10;;;;;;;18.35;91.84;100002.33;84776;1326;22591;-72
2022/08/17 03:42:24;;;;;;;20.00;17.20;;;;;;;18.37;92.02;100004.33;84795;1326;23196;-73
2022/08/17 03:44:32;;;;;;;16.70;15.00;;;;;;;18.39;92.11;100005.23;84764;1326;25438;-73
2022/08/17 03:56:46;;;;;;;20.80;16.60;;;;;;;18.57;92.62;100011.64;84541;1328;22845;-71
2022/08/17 03:58:55;;;;;;;17.30;15.20;;;;;;;18.62;92.65;100017.27;84665;1320;22573;-71
2022/08/17 04:01:03;;;;;;;21.90;14.40;;;;;;;18.66;92.56;100018.55;84791;1321;22941;-71
2022/08/17 04:03:12;;;;;;;17.60;15.50;;;;;;;18.71;92.69;100020.48;84768;1326;22601;-71
2022/08/17 04:05:24;;;;;;;18.50;15.30;;;;;;;18.77;92.82;100024.95;84770;1328;22687;-69
2022/08/17 04:07:33;;;;;;;15.60;14.20;;;;;;;18.84;92.88;100024.61;84773;1327;22584;-71
2022/08/17 04:09:43;;;;;;;18.20;16.00;;;;;;;18.90;92.94;100023.55;84780;1326;25429;-73
2022/08/17 04:11:57;;;;;;;20.00;15.30;;;;;;;18.96;92.90;100022.56;84784;1326;23978;-70
2022/08/17 04:14:07;;;;;;;17.50;14.40;;;;;;;19.01;92.87;100018.14;84776;1326;22645;-71
2022/08/17 04:16:16;;;;;;;16.30;14.60;;;;;;;19.06;92.90;100022.34;84777;1326;22633;-73
2022/08/17 04:18:25;;;;;;;16.90;15.10;;;;;;;19.12;93.04;100026.11;84769;1322;22606;-72
2022/08/17 04:20:33;;;;;;;19.70;15.30;;;;;;;19.18;93.23;100026.52;84789;1325;22870;-71
2022/08/17 04:22:42;;;;;;;17.80;14.70;;;;;;;19.25;93.30;100031.05;84792;1326;22652;-71
2022/08/17 04:24:51;;;;;;;20.30;15.70;;;;;;;19.34;93.34;100029.33;84781;1326;22691;-72
2022/08/17 04:27:00;;;;;;;17.10;15.40;;;;;;;19.42;93.41;100029.55;84831;1326;22601;-70
2022/08/17 04:29:09;;;;;;;17.70;15.00;;;;;;;19.53;93.68;100025.31;84818;1326;22577;-71
2022/08/17 04:31:18;;;;;;;15.60;13.80;;;;;;;19.64;93.94;100024.45;84782;1327;24079;-71
2022/08/17 04:33:28;;;;;;;16.60;14.90;;;;;;;19.78;94.35;100021.66;84789;1326;22645;-72
2022/08/17 04:35:39;;;;;;;16.70;14.90;;;;;;;19.93;94.37;100023.45;84793;1325;22584;-72
2022/08/17 04:37:48;;;;;;;15.10;13.30;;;;;;;20.06;94.14;100024.12;84792;1325;22585;-71
2022/08/17 04:42:20;;;;;;;15.40;13.80;;;;;;;20.32;93.97;100020.41;84780;1322;24291;-73
2022/08/17 04:44:28;;;;;;;15.70;14.00;;;;;;;20.53;93.90;100019.37;84807;1324;22739;-72
2022/08/17 04:46:38;;;;;;;17.00;13.70;;;;;;;20.96;95.35;100017.39;84807;1326;23068;-73
2022/08/17 04:48:48;;;;;;;15.80;14.00;;;;;;;21.62;96.63;100009.83;84790;1325;22596;-72
2022/08/17 04:50:59;;;;;;;13.50;12.30;;;;;;;22.32;96.24;100008.55;84809;1322;24260;-71
2022/08/17 04:53:08;;;;;;;14.60;12.80;;;;;;;23.00;94.15;100010.86;84788;1320;22690;-71
2022/08/17 04:55:18;;;;;;;14.80;12.20;;;;;;;23.65;92.14;100014.56;84790;1324;22604;-72
2022/08/17 04:57:27;;;;;;;17.40;13.20;;;;;;;24.23;89.36;100012.58;84786;1325;24232;-72
2022/08/17 04:59:36;;;;;;;14.80;11.70;;;;;;;24.70;85.95;100016.34;84746;1326;22653;-73
2022/08/17 05:01:48;;;;;;;13.00;11.60;;;;;;;25.15;84.11;100013.95;84816;1325;22590;-71
2022/08/17 05:03:59;;;;;;;14.20;12.10;;;;;;;25.72;81.58;100012.39;84752;1326;22630;-71
2022/08/17 05:06:08;;;;;;;13.30;11.10;;;;;;;26.22;78.16;100015.57;84776;1326;22664;-72
2022/08/17 05:08:17;;;;;;;15.70;11.90;;;;;;;26.58;76.32;100018.77;84685;1326;26401;-72
2022/08/17 05:10:28;;;;;;;13.40;10.70;;;;;;;26.66;74.06;100015.95;84766;1326;22933;-71
2022/08/17 05:12:36;;;;;;;20.30;11.60;;;;;;;26.48;72.91;100018.80;84803;1324;22582;-72
2022/08/17 05:14:45;;;;;;;12.70;11.40;;;;;;;26.22;72.54;100013.63;84773;1326;24602;-72
2022/08/17 05:16:54;;;;;;;12.10;10.20;;;;;;;25.95;72.47;100014.52;84784;1325;24231;-72
2022/08/17 05:19:02;;;;;;;12.20;10.90;;;;;;;25.79;72.49;100012.41;84794;1326;25419;-72
2022/08/17 05:21:11;;;;;;;12.70;11.30;;;;;;;25.63;72.69;100015.14;84805;1325;22595;-73
2022/08/17 05:23:21;;;;;;;12.80;10.80;;;;;;;25.53;72.55;100023.38;84789;1321;22866;-72
2022/08/17 05:25:32;;;;;;;14.60;10.10;;;;;;;25.51;72.16;100025.38;84810;1321;22728;-72
2022/08/17 05:27:41;;;;;;;15.90;10.80;;;;;;;25.55;72.01;100028.91;84801;1326;25449;-72
2022/08/17 05:29:50;;;;;;;14.10;9.80;;;;;;;25.60;71.77;100029.00;84784;1324;22953;-72
2022/08/17 05:31:59;;;;;;;13.30;10.40;;;;;;;25.70;71.55;100026.91;84812;1324;22699;-72
2022/08/17 05:34:07;;;;;;;10.90;9.20;;;;;;;25.83;71.08;100028.54;84780;1326;23068;-73
2022/08/17 05:36:16;;;;;;;12.40;9.60;;;;;;;26.01;70.73;100029.10;84809;1326;25388;-71
2022/08/17 05:38:28;;;;;;;11.90;9.20;;;;;;;26.48;70.20;100027.02;84774;1326;22792;-72
2022/08/17 05:40:37;;;;;;;9.90;8.90;;;;;;;27.06;69.87;100028.24;84805;1325;24281;-72
2022/08/17 05:42:45;;;;;;;15.40;8.80;;;;;;;27.73;68.16;100027.79;84763;1325;26541;-72
2022/08/17 05:44:54;;;;;;;10.20;9.10;;;;;;;28.39;66.18;100028.36;84735;1324;22541;-71
2022/08/17 05:47:03;;;;;;;9.40;8.60;;;;;;;29.00;64.11;100035.59;84786;1326;22584;-71
2022/08/17 05:49:12;;;;;;;14.50;8.70;;;;;;;29.43;62.17;100029.20;84767;1325;25651;-72
2022/08/17 05:51:47;;;;;;;14.60;8.40;;;;;;;29.90;61.19;100032.20;84786;1325;24403;-71
2022/08/17 05:54:06;;;;;;;9.50;8.60;;;;;;;30.37;57.86;100033.08;84785;1326;25464;-71
2022/08/17 05:56:20;;;;;;;15.70;9.60;;;;;;;30.84;58.43;100032.36;84799;1325;26373;-73
2022/08/17 05:58:34;;;;;;;12.10;9.50;;;;;;;31.38;55.94;100035.26;84792;1327;26531;-71
2022/08/17 06:00:55;;;;;;;15.10;9.20;;;;;;;31.81;54.51;100033.46;84812;1326;22640;-71
2022/08/17 06:03:40;;;;;;;10.20;9.20;;;;;;;32.21;53.81;100035.95;84784;1324;22606;-72
2022/08/17 06:05:58;;;;;;;14.80;9.80;;;;;;;32.39;52.50;100034.08;84818;1325;22580;-72
2022/08/17 06:08:12;;;;;;;14.00;8.60;;;;;;;32.46;52.12;100036.12;84783;1325;23931;-71
2022/08/17 06:10:30;;;;;;;16.80;9.40;;;;;;;32.54;50.38;100037.80;84791;1328;22596;-71
2022/08/17 06:12:47;;;;;;;9.90;8.50;;;;;;;32.16;50.09;100036.83;84798;1326;22581;-71
2022/08/17 06:15:09;;;;;;;10.20;8.50;;;;;;;31.66;50.39;100035.98;84758;1327;24239;-71
2022/08/17 06:17:21;;;;;;;10.00;8.40;;;;;;;31.18;50.88;100040.85;84811;1326;25354;-73
2022/08/17 06:19:37;;;;;;;10.70;8.60;;;;;;;30.73;50.78;100042.10;84802;1326;22607;-71
2022/08/17 06:21:48;;;;;;;8.70;7.80;;;;;;;30.35;51.43;100048.77;84765;1322;22627;-73
2022/08/17 06:23:59;;;;;;;8.70;7.70;;;;;;;30.03;52.15;100054.70;84774;1324;22624;-73
2022/08/17 06:26:11;;;;;;;9.20;8.30;;;;;;;29.70;52.17;100056.52;84777;1324;22614;-72
2022/08/17 06:28:24;;;;;;;9.70;6.70;;;;;;;29.32;52.48;100054.10;84758;1326;25368;-71
2022/08/17 06:30:38;;;;;;;10.80;7.50;;;;;;;28.99;53.45;100055.46;84780;1325;22657;-71
2022/08/17 06:32:47;;;;;;;10.50;7.60;;;;;;;28.85;54.13;100054.21;84772;1325;22582;-71
2022/08/17 06:34:56;;;;;;;10.00;7.60;;;;;;;28.73;54.68;100053.73;84776;1320;25615;-72
2022/08/17 06:37:22;;;;;;;13.00;8.60;;;;;;;28.52;55.40;100058.91;84772;1326;25275;-72
2022/08/17 06:39:43;;;;;;;11.40;7.10;;;;;;;28.30;55.68;100056.69;84796;1325;25439;-71
2022/08/17 06:41:56;;;;;;;9.90;8.00;;;;;;;28.29;56.12;100054.77;84793;1325;25447;-72
2022/08/17 06:44:15;;;;;;;9.10;7.20;;;;;;;28.45;56.03;100060.75;84799;1317;22564;-71
2022/08/17 06:46:31;;;;;;;8.50;7.70;;;;;;;28.79;56.13;100058.93;84765;1326;22623;-72
2022/08/17 06:48:43;;;;;;;8.30;7.50;;;;;;;29.33;55.58;100059.73;84773;1326;23989;-73
2022/08/17 06:50:54;;;;;;;8.90;7.00;;;;;;;29.86;54.24;100054.45;84819;1326;26711;-73
2022/08/17 06:53:11;;;;;;;13.50;9.10;;;;;;;30.02;53.65;100049.91;84808;1318;22809;-72
2022/08/17 06:55:25;;;;;;;10.80;7.00;;;;;;;30.36;52.90;100045.11;84776;1326;22598;-72
2022/08/17 06:57:36;;;;;;;15.30;7.10;;;;;;;30.35;51.85;100047.64;84785;1322;22586;-72
2022/08/17 06:59:51;;;;;;;9.40;7.60;;;;;;;30.20;51.77;100049.63;84785;1327;24322;-73
2022/08/17 07:02:04;;;;;;;17.90;9.20;;;;;;;30.54;51.78;100049.70;84805;1325;22580;-72
2022/08/17 07:04:15;;;;;;;13.10;7.50;;;;;;;30.83;50.92;100048.49;84787;1326;22580;-72
2022/08/17 07:06:27;;;;;;;12.20;6.90;;;;;;;31.01;50.86;100047.86;84803;1325;22609;-71
2022/08/17 07:08:53;;;;;;;10.40;7.90;;;;;;;31.17;50.35;100053.85;84804;1324;25291;-71
2022/08/17 07:11:03;;;;;;;9.10;7.00;;;;;;;31.26;49.95;100055.13;84791;1326;24275;-72
2022/08/17 07:13:28;;;;;;;11.20;7.20;;;;;;;31.33;49.39;100058.83;84790;1325;25342;-72
2022/08/17 07:15:42;;;;;;;11.90;8.20;;;;;;;31.37;48.81;100061.02;84815;1326;22597;-73
2022/08/17 07:17:51;;;;;;;13.50;7.50;;;;;;;31.58;48.44;100062.55;84781;1326;22825;-72
2022/08/17 07:20:04;;;;;;;12.80;8.20;;;;;;;31.90;48.35;100056.64;84777;1326;22604;-72
2022/08/17 07:22:22;;;;;;;11.70;8.60;;;;;;;32.29;47.18;100058.50;84810;1326;25612;-72
2022/08/17 07:24:43;;;;;;;12.60;8.40;;;;;;;32.75;46.52;100062.47;84795;1325;22555;-72
2022/08/17 07:27:08;;;;;;;7.70;6.90;;;;;;;33.27;45.93;100058.34;84822;1325;22593;-70
2022/08/17 07:29:18;;;;;;;10.20;7.90;;;;;;;33.91;44.90;100060.78;84797;1320;22828;-71
2022/08/17 07:31:29;;;;;;;10.30;7.80;;;;;;;34.54;43.67;100062.27;84822;1326;22582;-71
2022/08/17 07:33:38;;;;;;;8.20;6.80;;;;;;;34.98;42.33;100062.80;84787;1326;22614;-73
2022/08/17 07:35:48;;;;;;;11.60;7.50;;;;;;;35.28;41.28;100064.10;84794;1324;22688;-72
2022/08/17 07:38:14;;;;;;;12.80;7.30;;;;;;;35.68;40.42;100066.63;84779;1325;25411;-72
2022/08/17 07:40:32;;;;;;;10.10;6.60;;;;;;;36.00;39.63;100065.17;84809;1322;22793;-72
2022/08/17 07:42:40;;;;;;;9.10;6.70;;;;;;;36.41;38.97;100061.77;84825;1326;22580;-72
2022/08/17 07:44:52;;;;;;;;;;;;;;;36.58;38.29;100059.02;84762;1324;22837;-72
2022/08/17 07:49:37;;;;;;;10.50;7.00;;;;;;;37.02;37.53;100057.27;84758;1322;22618;-72
2022/08/17 07:52:04;;;;;;;7.80;7.10;;;;;;;36.84;36.83;100061.88;84789;1322;22609;-73
2022/08/17 07:54:27;;;;;;;8.20;6.30;;;;;;;36.74;37.08;100056.98;84815;1325;22596;-73
2022/08/17 07:56:45;;;;;;;6.80;6.20;;;;;;;36.99;36.36;100062.16;84775;1325;24511;-72
2022/08/17 07:59:02;;;;;;;9.80;6.80;;;;;;;37.17;35.70;100058.46;84787;1325;25419;-72
2022/08/17 08:01:16;;;;;;;7.30;6.40;;;;;;;37.28;35.21;100057.11;84815;1327;22822;-72
2022/08/17 08:03:27;;;;;;;11.50;6.70;;;;;;;37.41;35.48;100055.93;84805;1325;22577;-72
2022/08/17 08:05:36;;;;;;;9.20;7.70;;;;;;;37.54;34.73;100054.33;84819;1325;22581;-73
2022/08/17 08:07:54;;;;;;;20.30;7.60;;;;;;;37.61;35.31;100056.27;84811;1325;22587;-73
2022/08/17 08:10:11;;;;;;;10.90;6.20;;;;;;;37.97;35.30;100060.30;84834;1325;22608;-73
2022/08/17 08:12:32;;;;;;;9.70;6.30;;;;;;;38.47;34.51;100060.96;84779;1326;22588;-72
2022/08/17 08:14:43;;;;;;;12.20;6.80;;;;;;;38.86;33.73;100054.84;84774;1325;24094;-72
2022/08/17 08:16:59;;;;;;;7.00;6.30;;;;;;;39.03;32.57;100052.34;84799;1327;22608;-73
2022/08/17 08:19:11;;;;;;;8.80;7.10;;;;;;;39.12;31.91;100050.21;84802;1326;24288;-73
2022/08/17 08:21:27;;;;;;;7.40;6.70;;;;;;;39.21;32.27;100052.12;84804;1326;25266;-73
2022/08/17 08:23:41;;;;;;;11.20;6.70;;;;;;;39.50;32.22;100053.88;84795;1328;22594;-73
2022/08/17 08:25:58;;;;;;;8.10;6.70;;;;;;;39.80;31.31;100057.52;84815;1326;23949;-73
2022/08/17 08:28:18;;;;;;;10.40;6.40;;;;;;;40.11;31.55;100058.38;84772;1326;22819;-73
2022/08/17 08:30:30;;;;;;;13.20;6.90;;;;;;;40.39;30.79;100058.40;84761;1326;22580;-73
2022/08/17 08:32:56;;;;;;;11.90;6.90;;;;;;;40.62;30.95;100064.96;84771;1325;22606;-71
2022/08/17 08:35:07;;;;;;;13.90;6.50;;;;;;;40.82;29.36;100065.97;84799;1327;25135;-70
2022/08/17 08:37:20;;;;;;;10.80;6.60;;;;;;;40.86;29.10;100062.76;84804;1325;22610;-72
2022/08/17 08:39:35;;;;;;;6.70;5.50;;;;;;;40.83;29.53;100064.31;84818;1325;24112;-72
2022/08/17 08:41:51;;;;;;;12.10;6.70;;;;;;;40.86;28.55;100066.22;84794;1325;25446;-72
2022/08/17 08:44:08;;;;;;;7.10;6.00;;;;;;;40.31;28.77;100070.58;84768;1326;22612;-72
2022/08/17 08:46:24;;;;;;;11.40;7.00;;;;;;;39.79;29.42;100069.13;84808;1327;22586;-72
2022/08/17 08:49:00;;;;;;;14.50;8.50;;;;;;;39.30;30.11;100066.77;84797;1325;22588;-71
2022/08/17 08:51:12;;;;;;;10.00;7.50;;;;;;;38.71;30.86;100068.48;84788;1326;22693;-72
2022/08/17 08:53:31;;;;;;;12.30;7.60;;;;;;;38.39;31.16;100068.79;84799;1326;25326;-72
2022/08/17 08:55:55;;;;;;;10.10;6.00;;;;;;;38.35;31.35;100066.02;84790;1326;25274;-73
2022/08/17 08:58:08;;;;;;;7.20;5.50;;;;;;;38.28;31.43;100070.48;84784;1328;24247;-72
2022/08/17 09:00:21;;;;;;;10.00;6.10;;;;;;;38.53;30.74;100066.30;84780;1325;24371;-72
2022/08/17 09:02:57;;;;;;;6.20;5.60;;;;;;;38.77;30.81;100063.79;84783;1325;22806;-72
2022/08/17 09:05:13;;;;;;;6.90;5.80;;;;;;;39.32;30.86;100067.95;84780;1326;22559;-72
2022/08/17 09:07:33;;;;;;;14.40;7.40;;;;;;;39.75;29.82;100068.64;84789;1326;22585;-72
2022/08/17 09:09:51;;;;;;;6.50;5.80;;;;;;;40.06;29.08;100069.23;84773;1326;24306;-72
2022/08/17 09:12:05;;;;;;;7.40;5.80;;;;;;;40.38;29.37;100062.66;84782;1326;22604;-72
2022/08/17 09:14:18;;;;;;;13.40;7.30;;;;;;;40.41;28.91;100063.63;84788;1326;26485;-72
2022/08/17 09:16:31;;;;;;;9.00;5.80;;;;;;;40.48;29.21;100065.33;84846;1326;22638;-72
2022/08/17 09:18:42;;;;;;;10.20;5.80;;;;;;;40.55;29.54;100068.03;84816;1326;23901;-71
2022/08/17 09:20:55;;;;;;;9.70;5.40;;;;;;;39.88;28.91;100068.45;84775;1318;23915;-71
2022/08/17 09:23:07;;;;;;;8.20;5.40;;;;;;;38.97;29.73;100072.33;84766;1325;24291;-73
2022/08/17 09:25:20;;;;;;;7.50;6.30;;;;;;;38.17;30.70;100075.31;84820;1325;26623;-73
2022/08/17 09:27:36;;;;;;;9.70;6.50;;;;;;;38.07;30.81;100074.92;84784;1326;25461;-73
2022/08/17 09:29:48;;;;;;;13.30;5.80;;;;;;;38.04;31.27;100080.04;84755;1326;23138;-73
2022/08/17 09:32:00;;;;;;;11.00;5.20;;;;;;;38.10;31.12;100078.89;84789;1326;22872;-72
2022/08/17 09:34:13;;;;;;;6.80;5.10;;;;;;;38.12;30.65;100077.67;84789;1321;24215;-72
2022/08/17 09:36:31;;;;;;;5.90;5.00;;;;;;;38.13;30.97;100076.92;84801;1325;24187;-74
2022/08/17 09:38:57;;;;;;;8.00;5.60;;;;;;;38.02;30.53;100073.06;84735;1323;22812;-73
2022/08/17 09:41:13;;;;;;;6.30;5.20;;;;;;;37.82;31.17;100072.86;84794;1325;22846;-73
2022/08/17 09:43:26;;;;;;;8.80;5.60;;;;;;;37.68;31.68;100075.52;84792;1327;23949;-72
2022/08/17 09:45:37;;;;;;;9.00;5.30;;;;;;;37.25;31.54;100078.83;84789;1326;22587;-71
2022/08/17 09:47:50;;;;;;;8.60;6.60;;;;;;;36.56;31.95;100075.54;84771;1326;26014;-73
2022/08/17 09:50:01;;;;;;;7.30;5.30;;;;;;;35.95;33.12;100077.60;84804;1327;23023;-72
2022/08/17 09:52:15;;;;;;;10.30;5.00;;;;;;;35.50;33.78;100078.07;84800;1318;25440;-72
2022/08/17 09:54:28;;;;;;;9.60;5.60;;;;;;;34.90;34.25;100076.21;84786;1325;22617;-72
2022/08/17 09:56:47;;;;;;;7.50;5.80;;;;;;;34.49;35.63;100077.11;84814;1325;22604;-73
2022/08/17 09:59:20;;;;;;;13.40;5.60;;;;;;;34.21;35.97;100081.11;84762;1321;22582;-73
2022/08/17 10:01:35;;;;;;;8.60;6.00;;;;;;;34.03;36.44;100078.14;84793;1327;25293;-71
2022/08/17 10:04:05;;;;;;;10.60;6.10;;;;;;;33.87;36.93;100078.08;84368;1326;602816;-72
2022/08/17 10:06:18;;;;;;;12.30;6.80;;;;;;;33.68;37.65;100079.27;84825;1327;22782;-72
2022/08/17 10:08:35;;;;;;;7.80;6.20;;;;;;;33.34;37.51;100076.26;84765;1326;23936;-72
2022/08/17 10:10:48;;;;;;;11.20;5.80;;;;;;;33.09;38.56;100075.53;84783;1325;22585;-72
2022/08/17 10:13:02;;;;;;;10.60;5.70;;;;;;;33.12;38.74;100075.61;84809;1325;22616;-73
2022/08/17 10:15:35;;;;;;;13.10;6.40;;;;;;;33.21;38.99;100071.38;84760;1326;25424;-72
2022/08/17 10:17:54;;;;;;;9.00;6.50;;;;;;;33.23;38.72;100074.48;84758;1326;24269;-72
2022/08/17 10:20:06;;;;;;;8.30;6.10;;;;;;;33.18;39.07;100073.77;84737;1323;22586;-72
2022/08/17 10:27:19;;;;;;;9.00;5.60;;;;;;;33.08;38.61;100080.33;84689;1328;22634;-71
2022/08/17 10:29:31;;;;;;;7.10;5.40;;;;;;;32.78;38.41;100079.05;84755;1326;22685;-72
2022/08/17 10:31:44;;;;;;;10.50;5.80;;;;;;;32.41;39.22;100079.73;84760;1328;23933;-72